Colville Lake, Canada
Current Conditions -  °F | °C
As of 2:00 PM on Tuesday 25 Nov 2014 (Local Time) from CYGH Reporting Station
Overcast Overcast  
Wind Chill: -9°   Ceiling: 12000
Heat Index: -9°   Visibility: 15mi
Dew Point: -15°   Wind: 3mph
Humidity: 77%   Direction: 220°SW
Pressure: 30.17"   Gusts: NA
Location:  67.03°N, 126.12°W
Report Text: CYGH 252100Z 22003KT 15SM SCT040 OVC120 M23/M26 A3017 RMKSC4AC4 SLP229
Loading
Personal Weather Stations






























Interactive Weather Map New forecast layout! Learn more

10-Day Weather Forecast

Advertisements
Track Severe Weather on mobile